createdAt,value
2018-12-05T00:04:37.963Z,99.90
2018-12-05T00:09:50.561Z,99.90
2018-12-05T00:14:57.163Z,99.90
2018-12-05T00:20:05.661Z,99.90
2018-12-05T00:25:11.805Z,99.90
2018-12-05T00:30:18.630Z,99.90
2018-12-05T00:35:25.449Z,99.90
2018-12-05T00:40:31.315Z,99.90
2018-12-05T00:45:38.137Z,99.90
2018-12-05T00:50:45.325Z,99.90
2018-12-05T00:55:52.969Z,99.80
2018-12-05T01:00:58.766Z,99.30
2018-12-05T01:06:05.120Z,98.80
2018-12-05T01:11:12.091Z,98.70
2018-12-05T01:16:17.910Z,98.50
2018-12-05T01:21:23.707Z,98.50
2018-12-05T01:26:30.468Z,98.60
2018-12-05T01:31:37.487Z,98.40
2018-12-05T01:36:45.726Z,98.30
2018-12-05T01:41:52.564Z,98.60
2018-12-05T01:46:58.377Z,99.00
2018-12-05T01:52:05.439Z,99.40
2018-12-05T01:57:12.648Z,99.40
2018-12-05T02:02:18.457Z,99.80
2018-12-05T02:07:26.144Z,99.80
2018-12-05T02:12:32.130Z,99.90
2018-12-05T02:17:38.592Z,99.90
2018-12-05T02:22:44.614Z,99.90
2018-12-05T02:27:50.623Z,99.90
2018-12-05T02:32:58.048Z,99.90
2018-12-05T02:38:05.452Z,99.90
2018-12-05T02:43:11.372Z,99.90
2018-12-05T02:48:18.219Z,99.90
2018-12-05T02:53:25.461Z,99.90
2018-12-05T02:58:31.352Z,99.90
2018-12-05T03:03:37.152Z,99.90
2018-12-05T03:08:48.027Z,99.90
2018-12-05T03:13:54.984Z,99.90
2018-12-05T03:19:01.814Z,99.90
2018-12-05T03:24:09.458Z,99.90
2018-12-05T03:29:16.309Z,99.90
2018-12-05T03:34:22.547Z,99.90
2018-12-05T03:39:30.457Z,99.90
2018-12-05T03:44:37.411Z,99.90
2018-12-05T03:49:48.311Z,99.90
2018-12-05T03:54:55.106Z,99.90
2018-12-05T04:00:00.995Z,99.90
2018-12-05T04:05:07.308Z,99.90
2018-12-05T04:10:16.614Z,99.90
2018-12-05T04:15:27.467Z,99.90
2018-12-05T04:20:33.360Z,99.90
2018-12-05T04:31:03.561Z,99.90
2018-12-05T04:36:11.835Z,99.90
2018-12-05T04:41:17.653Z,99.90
2018-12-05T04:46:23.439Z,99.90
2018-12-05T04:51:30.017Z,99.90
2018-12-05T04:56:38.283Z,99.90
2018-12-05T05:01:46.616Z,99.90
2018-12-05T05:06:53.451Z,99.30
2018-12-05T05:12:00.231Z,99.00
2018-12-05T05:17:08.151Z,99.10
2018-12-05T05:22:13.943Z,99.00
2018-12-05T05:27:21.485Z,99.10
2018-12-05T05:32:27.298Z,99.00
2018-12-05T05:37:33.264Z,98.70
2018-12-05T05:42:39.096Z,98.40
2018-12-05T05:47:44.877Z,98.40
2018-12-05T05:52:52.872Z,98.50
2018-12-05T05:57:58.847Z,98.60
2018-12-05T06:03:05.329Z,98.70
2018-12-05T06:08:18.795Z,99.00
2018-12-05T06:13:25.718Z,99.20
2018-12-05T06:18:32.438Z,99.40
2018-12-05T06:23:39.210Z,99.60
2018-12-05T06:28:45.042Z,99.60
2018-12-05T06:33:52.258Z,99.70
2018-12-05T06:39:01.218Z,99.90
2018-12-05T06:44:10.795Z,99.60
2018-12-05T06:49:16.713Z,99.50
2018-12-05T06:54:30.112Z,99.50
2018-12-05T06:59:37.648Z,99.60
2018-12-05T07:04:43.617Z,99.30
2018-12-05T07:09:49.614Z,99.00
2018-12-05T07:14:55.478Z,98.70
2018-12-05T07:20:03.032Z,98.60
2018-12-05T07:25:10.949Z,98.70
2018-12-05T07:30:16.851Z,98.70
2018-12-05T07:35:23.067Z,98.50
2018-12-05T07:40:28.972Z,98.50
2018-12-05T07:45:36.113Z,98.30
2018-12-05T07:50:42.371Z,98.10
2018-12-05T07:55:57.834Z,97.90
2018-12-05T08:01:03.860Z,97.90
2018-12-05T08:06:10.899Z,97.90
2018-12-05T08:11:16.584Z,98.00
2018-12-05T08:16:23.666Z,98.10
2018-12-05T08:21:30.727Z,98.20
2018-12-05T08:26:37.475Z,98.30
2018-12-05T08:31:44.520Z,98.30
2018-12-05T08:36:52.551Z,98.30
2018-12-05T08:42:00.179Z,98.30
2018-12-05T08:47:06.608Z,98.10
2018-12-05T08:52:15.016Z,97.90
2018-12-05T08:57:21.335Z,97.80
2018-12-05T09:02:28.315Z,97.70
2018-12-05T09:07:34.442Z,97.50
2018-12-05T09:12:40.371Z,97.60
2018-12-05T09:17:46.213Z,97.20
2018-12-05T09:22:52.255Z,96.60
2018-12-05T09:27:58.514Z,96.20
2018-12-05T09:33:05.545Z,96.20
2018-12-05T09:38:12.775Z,95.20
2018-12-05T09:43:19.667Z,94.60
2018-12-05T09:48:25.547Z,94.80
2018-12-05T09:53:32.033Z,94.40
2018-12-05T09:58:37.954Z,94.30
2018-12-05T10:03:44.743Z,93.90
2018-12-05T10:08:50.514Z,93.70
2018-12-05T10:13:56.266Z,93.50
2018-12-05T10:19:03.219Z,92.60
2018-12-05T10:24:09.055Z,92.50
2018-12-05T10:29:14.869Z,92.50
2018-12-05T10:34:21.835Z,91.40
2018-12-05T10:39:29.033Z,91.20
2018-12-05T10:44:37.184Z,90.20
2018-12-05T10:49:42.942Z,89.40
2018-12-05T10:54:49.872Z,89.00
2018-12-05T10:59:55.806Z,87.50
2018-12-05T11:05:06.783Z,89.30
2018-12-05T11:10:19.010Z,88.40
2018-12-05T11:15:30.197Z,89.20
2018-12-05T11:21:49.714Z,89.00
2018-12-05T11:26:52.764Z,87.70
2018-12-05T11:31:58.580Z,86.00
2018-12-05T11:37:05.387Z,84.30
2018-12-05T11:42:11.358Z,83.10
2018-12-05T11:47:18.317Z,71.90
2018-12-05T11:52:26.137Z,49.50
2018-12-05T11:57:32.008Z,42.70
2018-12-05T12:02:38.799Z,38.30
2018-12-05T12:07:48.849Z,35.10
2018-12-05T12:12:59.931Z,34.00
2018-12-05T12:18:06.155Z,32.00
2018-12-05T12:23:11.919Z,31.10
2018-12-05T12:28:18.809Z,30.90
2018-12-05T12:33:24.886Z,31.50
2018-12-05T12:38:30.683Z,30.00
2018-12-05T12:43:36.874Z,29.60
2018-12-05T12:48:43.205Z,30.00
2018-12-05T12:53:49.099Z,34.20
2018-12-05T12:58:55.010Z,39.70
2018-12-05T13:04:01.026Z,45.60
2018-12-05T13:09:07.989Z,49.80
2018-12-05T13:14:14.001Z,54.10
2018-12-05T13:19:19.918Z,57.30
2018-12-05T13:24:25.826Z,60.80
2018-12-05T13:29:32.706Z,64.00
2018-12-05T13:34:38.601Z,65.80
2018-12-05T13:39:44.853Z,68.00
2018-12-05T13:44:54.343Z,66.40
2018-12-05T13:50:00.138Z,68.00
2018-12-05T13:55:06.611Z,70.90
2018-12-05T14:00:13.496Z,72.50
2018-12-05T14:05:19.336Z,74.90
2018-12-05T14:10:25.243Z,76.70
2018-12-05T14:15:31.466Z,78.40
2018-12-05T14:20:37.453Z,80.40
2018-12-05T14:25:43.250Z,81.40
2018-12-05T14:30:49.139Z,83.30
2018-12-05T14:35:55.623Z,85.00
2018-12-05T14:41:01.443Z,87.70
2018-12-05T14:46:07.689Z,90.00
2018-12-05T14:51:13.828Z,90.70
2018-12-05T14:56:19.697Z,91.60
2018-12-05T15:01:25.807Z,92.60
2018-12-05T15:06:32.328Z,93.60
2018-12-05T15:11:38.402Z,94.40
2018-12-05T15:16:44.303Z,95.10
2018-12-05T15:21:50.299Z,95.70
2018-12-05T15:26:59.417Z,96.30
2018-12-05T15:32:06.342Z,96.70
2018-12-05T15:37:12.254Z,97.00
2018-12-05T15:42:19.235Z,97.20
2018-12-05T15:47:26.528Z,97.40
2018-12-05T15:52:34.763Z,97.50
2018-12-05T15:57:41.422Z,97.80
2018-12-05T16:02:47.433Z,98.20
2018-12-05T16:07:53.252Z,98.50
2018-12-05T16:12:59.037Z,99.10
2018-12-05T16:18:05.362Z,99.20
2018-12-05T16:23:11.186Z,99.40
2018-12-05T16:28:16.981Z,99.50
2018-12-05T16:33:22.807Z,99.60
2018-12-05T16:38:30.939Z,99.80
2018-12-05T16:43:39.566Z,99.90
2018-12-05T16:48:45.387Z,99.90
2018-12-05T16:53:51.305Z,99.90
2018-12-05T16:58:57.133Z,99.90
2018-12-05T17:04:05.864Z,99.90
2018-12-05T17:09:11.675Z,99.90
2018-12-05T17:14:18.934Z,99.90
2018-12-05T17:19:24.780Z,99.90
2018-12-05T17:24:30.676Z,99.90
2018-12-05T17:29:36.698Z,99.90
2018-12-05T17:34:42.702Z,99.90
2018-12-05T17:39:48.592Z,99.90
2018-12-05T17:44:55.868Z,99.90
2018-12-05T17:50:03.740Z,99.90
2018-12-05T17:55:10.723Z,99.90
2018-12-05T18:00:17.685Z,99.90
2018-12-05T18:05:23.501Z,99.90
2018-12-05T18:10:30.454Z,99.90
2018-12-05T18:15:36.270Z,99.90
2018-12-05T18:20:42.216Z,99.90
2018-12-05T18:25:49.252Z,99.90
2018-12-05T18:30:55.184Z,99.90
2018-12-05T18:36:01.153Z,99.90
2018-12-05T18:41:07.003Z,99.90
2018-12-05T18:46:12.831Z,99.90
2018-12-05T18:51:18.671Z,99.90
2018-12-05T18:56:25.452Z,99.90
2018-12-05T19:01:31.657Z,99.90
2018-12-05T19:06:38.492Z,99.90
2018-12-05T19:11:44.499Z,99.90
2018-12-05T19:16:51.707Z,99.90
2018-12-05T19:21:58.129Z,99.90
2018-12-05T19:27:04.191Z,99.90
2018-12-05T19:32:10.091Z,99.90
2018-12-05T19:37:15.924Z,99.90
2018-12-05T19:42:23.658Z,99.90
2018-12-05T19:47:29.449Z,99.90
2018-12-05T19:52:35.342Z,99.90
2018-12-05T19:57:42.199Z,99.90
2018-12-05T20:02:48.073Z,99.90
2018-12-05T20:07:54.929Z,99.90
2018-12-05T20:13:00.762Z,99.90
2018-12-05T20:18:06.897Z,99.90
2018-12-05T20:23:13.950Z,99.90
2018-12-05T20:28:19.855Z,99.90
2018-12-05T20:33:25.761Z,99.90
2018-12-05T20:38:31.694Z,99.90
2018-12-05T20:43:38.727Z,99.90
2018-12-05T20:48:45.328Z,99.90
2018-12-05T20:53:52.358Z,99.90
2018-12-05T20:58:58.287Z,99.90
2018-12-05T21:04:04.452Z,99.90
2018-12-05T21:09:11.139Z,99.90
2018-12-05T21:14:18.686Z,99.90
2018-12-05T21:19:24.858Z,99.90
2018-12-05T21:24:30.883Z,99.90
2018-12-05T21:29:36.693Z,99.90
2018-12-05T21:34:44.877Z,99.90
2018-12-05T21:39:50.877Z,99.90
2018-12-05T21:44:56.924Z,99.90
2018-12-05T21:50:02.779Z,99.90
2018-12-05T21:55:10.185Z,99.90
2018-12-05T22:00:16.255Z,99.90
2018-12-05T22:05:22.065Z,99.90
2018-12-05T22:10:27.868Z,99.90
2018-12-05T22:15:33.870Z,99.90
2018-12-05T22:20:39.868Z,99.90
2018-12-05T22:25:46.163Z,99.90
2018-12-05T22:30:52.406Z,99.90
2018-12-05T22:35:58.393Z,99.90
2018-12-05T22:49:13.516Z,99.90
2018-12-05T22:54:19.425Z,99.90
2018-12-05T22:59:25.301Z,99.90
2018-12-05T23:04:31.236Z,99.90
2018-12-05T23:09:37.074Z,99.90
2018-12-05T23:14:45.950Z,99.90
2018-12-05T23:19:52.601Z,99.90
2018-12-05T23:24:59.580Z,99.90
2018-12-05T23:30:06.014Z,99.90
2018-12-05T23:35:13.642Z,99.90
2018-12-05T23:40:26.466Z,99.90
2018-12-05T23:45:32.638Z,99.90
2018-12-05T23:50:39.919Z,99.90
2018-12-05T23:55:46.094Z,99.90
